createdAt,value
2022-11-27T00:00:12.747Z,0.00
2022-11-27T00:01:12.715Z,0.00
2022-11-27T00:02:12.722Z,0.00
2022-11-27T00:03:12.739Z,0.00
2022-11-27T00:04:12.664Z,0.00
2022-11-27T00:05:12.611Z,0.00
2022-11-27T00:06:12.598Z,0.00
2022-11-27T00:07:12.600Z,0.00
2022-11-27T00:08:12.538Z,0.00
2022-11-27T00:09:12.509Z,0.00
2022-11-27T00:10:12.498Z,0.00
2022-11-27T00:11:12.459Z,0.00
2022-11-27T00:12:12.440Z,0.00
2022-11-27T00:13:12.403Z,0.00
2022-11-27T00:14:12.386Z,0.00
2022-11-27T00:15:16.954Z,0.00
2022-11-27T00:16:12.392Z,0.00
2022-11-27T00:17:12.304Z,0.00
2022-11-27T00:18:12.287Z,0.00
2022-11-27T00:19:12.251Z,0.00
2022-11-27T00:20:12.230Z,0.00
2022-11-27T00:21:12.207Z,0.00
2022-11-27T00:22:12.184Z,0.00
2022-11-27T00:23:12.149Z,0.00
2022-11-27T00:24:12.125Z,0.00
2022-11-27T00:25:12.095Z,0.00
2022-11-27T00:26:12.079Z,0.00
2022-11-27T00:27:12.050Z,0.00
2022-11-27T00:28:12.028Z,0.00
2022-11-27T00:29:12.015Z,0.00
2022-11-27T00:30:11.974Z,0.00
2022-11-27T00:31:11.958Z,0.00
2022-11-27T00:32:11.916Z,0.00
2022-11-27T00:33:11.907Z,0.00
2022-11-27T00:34:11.863Z,0.00
2022-11-27T00:35:11.838Z,0.00
2022-11-27T00:36:11.814Z,0.00
2022-11-27T00:37:11.796Z,0.00
2022-11-27T00:38:11.769Z,0.00
2022-11-27T00:39:11.734Z,0.00
2022-11-27T00:40:11.708Z,0.00
2022-11-27T00:41:11.676Z,0.00
2022-11-27T00:42:11.660Z,0.00
2022-11-27T00:43:11.624Z,0.00
2022-11-27T00:44:11.624Z,0.00
2022-11-27T00:45:11.576Z,0.00
2022-11-27T00:46:11.661Z,0.00
2022-11-27T00:47:11.521Z,0.00
2022-11-27T00:48:11.498Z,0.00
2022-11-27T00:49:11.472Z,0.00
2022-11-27T00:50:11.452Z,0.00
2022-11-27T00:51:11.415Z,0.00
2022-11-27T00:52:11.396Z,0.00
2022-11-27T00:53:11.367Z,0.00
2022-11-27T00:54:11.346Z,0.00
2022-11-27T00:55:11.316Z,0.00
2022-11-27T00:56:11.297Z,0.00
2022-11-27T00:57:11.263Z,0.00
2022-11-27T00:58:11.237Z,0.00
2022-11-27T00:59:11.214Z,0.00
2022-11-27T01:00:11.182Z,0.00
2022-11-27T01:01:11.263Z,0.00
2022-11-27T01:02:11.197Z,0.00
2022-11-27T01:03:11.216Z,0.00
2022-11-27T01:04:11.075Z,0.00
2022-11-27T01:05:11.058Z,0.00
2022-11-27T01:06:11.025Z,0.00
2022-11-27T01:07:11.114Z,0.00
2022-11-27T01:08:10.970Z,0.00
2022-11-27T01:09:10.954Z,0.00
2022-11-27T01:10:10.917Z,0.00
2022-11-27T01:11:10.898Z,0.00
2022-11-27T01:12:10.876Z,0.00
2022-11-27T01:13:10.848Z,0.00
2022-11-27T01:14:10.820Z,0.00
2022-11-27T01:15:10.791Z,0.00
2022-11-27T01:16:10.808Z,0.00
2022-11-27T01:17:10.738Z,0.00
2022-11-27T01:18:10.737Z,0.00
2022-11-27T01:19:10.686Z,0.00
2022-11-27T01:20:10.656Z,0.00
2022-11-27T01:21:10.633Z,0.00
2022-11-27T01:22:10.601Z,0.00
2022-11-27T01:23:10.582Z,0.00
2022-11-27T01:24:10.550Z,0.00
2022-11-27T01:25:10.527Z,0.00
2022-11-27T01:26:10.496Z,0.00
2022-11-27T01:27:10.473Z,0.00
2022-11-27T01:28:10.439Z,0.00
2022-11-27T01:29:10.433Z,0.00
2022-11-27T01:30:10.395Z,0.00
2022-11-27T01:31:10.420Z,0.00
2022-11-27T01:32:10.335Z,0.00
2022-11-27T01:33:10.314Z,0.00
2022-11-27T01:34:10.286Z,0.00
2022-11-27T01:35:10.299Z,0.00
2022-11-27T01:36:10.249Z,0.00
2022-11-27T01:37:10.209Z,0.00
2022-11-27T01:38:10.180Z,0.00
2022-11-27T01:39:10.164Z,0.00
2022-11-27T01:40:10.122Z,0.00
2022-11-27T01:41:10.104Z,0.00
2022-11-27T01:42:10.079Z,0.00
2022-11-27T01:43:10.054Z,0.00
2022-11-27T01:44:10.021Z,0.00
2022-11-27T01:45:10.009Z,0.00
2022-11-27T01:46:09.998Z,0.00
2022-11-27T01:47:09.943Z,0.00
2022-11-27T01:48:09.925Z,0.00
2022-11-27T01:49:09.897Z,0.00
2022-11-27T01:50:09.859Z,0.00
2022-11-27T01:51:09.835Z,0.00
2022-11-27T01:52:09.824Z,0.00
2022-11-27T01:53:09.786Z,0.00
2022-11-27T01:54:09.753Z,0.00
2022-11-27T01:55:09.729Z,0.00
2022-11-27T01:56:09.723Z,0.00
2022-11-27T01:57:09.681Z,0.00
2022-11-27T01:58:09.660Z,0.00
2022-11-27T01:59:09.621Z,0.00
2022-11-27T02:00:09.596Z,0.00
2022-11-27T02:01:09.578Z,0.00
2022-11-27T02:02:09.651Z,0.00
2022-11-27T02:03:09.639Z,0.00
2022-11-27T02:04:09.486Z,0.00
2022-11-27T02:05:09.465Z,0.00
2022-11-27T02:06:09.436Z,0.00
2022-11-27T02:07:09.578Z,0.00
2022-11-27T02:08:09.380Z,0.00
2022-11-27T02:09:09.358Z,0.00
2022-11-27T02:10:09.339Z,0.00
2022-11-27T02:11:09.306Z,0.00
2022-11-27T02:12:09.276Z,0.00
2022-11-27T02:13:09.253Z,0.00
2022-11-27T02:14:09.222Z,0.00
2022-11-27T02:15:09.196Z,0.00
2022-11-27T02:16:11.786Z,0.00
2022-11-27T02:17:09.143Z,0.00
2022-11-27T02:18:09.115Z,0.00
2022-11-27T02:19:09.091Z,0.00
2022-11-27T02:20:09.065Z,0.00
2022-11-27T02:21:09.041Z,0.00
2022-11-27T02:22:09.011Z,0.00
2022-11-27T02:23:08.989Z,0.00
2022-11-27T02:24:08.968Z,0.00
2022-11-27T02:25:08.936Z,0.00
2022-11-27T02:26:08.899Z,0.00
2022-11-27T02:27:08.881Z,0.00
2022-11-27T02:28:08.899Z,0.00
2022-11-27T02:29:08.835Z,0.00
2022-11-27T02:30:08.809Z,0.00
2022-11-27T02:31:08.831Z,0.00
2022-11-27T02:32:08.736Z,0.00
2022-11-27T02:33:08.717Z,0.00
2022-11-27T02:34:08.686Z,0.00
2022-11-27T02:35:08.662Z,0.00
2022-11-27T02:36:08.649Z,0.00
2022-11-27T02:37:08.615Z,0.00
2022-11-27T02:38:08.575Z,0.00
2022-11-27T02:39:08.555Z,0.00
2022-11-27T02:40:08.523Z,0.00
2022-11-27T02:41:08.503Z,0.00
2022-11-27T02:42:08.579Z,0.00
2022-11-27T02:43:08.447Z,0.00
2022-11-27T02:44:08.428Z,0.00
2022-11-27T02:45:08.397Z,0.00
2022-11-27T02:46:08.451Z,0.00
2022-11-27T02:47:08.344Z,0.00
2022-11-27T02:48:08.308Z,0.00
2022-11-27T02:49:08.287Z,0.00
2022-11-27T02:50:08.252Z,0.00
2022-11-27T02:51:08.237Z,0.00
2022-11-27T02:52:08.204Z,0.00
2022-11-27T02:53:08.180Z,0.00
2022-11-27T02:54:08.150Z,0.00
2022-11-27T02:55:08.131Z,0.00
2022-11-27T02:56:08.102Z,0.00
2022-11-27T02:57:08.072Z,0.00
2022-11-27T02:58:08.147Z,0.00
2022-11-27T02:59:08.024Z,0.00
2022-11-27T03:00:07.986Z,0.00
2022-11-27T03:01:07.971Z,0.00
2022-11-27T03:02:07.988Z,0.00
2022-11-27T03:03:07.996Z,0.00
2022-11-27T03:04:07.885Z,0.00
2022-11-27T03:05:07.864Z,0.00
2022-11-27T03:06:07.841Z,0.00
2022-11-27T03:07:07.806Z,0.00
2022-11-27T03:08:07.780Z,0.00
2022-11-27T03:09:07.754Z,0.00
2022-11-27T03:10:07.727Z,0.00
2022-11-27T03:11:07.700Z,0.00
2022-11-27T03:12:07.670Z,0.00
2022-11-27T03:13:07.658Z,0.00
2022-11-27T03:14:07.719Z,0.00
2022-11-27T03:15:07.589Z,0.00
2022-11-27T03:16:07.621Z,0.00
2022-11-27T03:17:07.540Z,0.00
2022-11-27T03:18:07.507Z,0.00
2022-11-27T03:19:07.490Z,0.00
2022-11-27T03:20:07.454Z,0.00
2022-11-27T03:21:07.434Z,0.00
2022-11-27T03:22:07.399Z,0.00
2022-11-27T03:23:07.400Z,0.00
2022-11-27T03:24:07.344Z,0.00
2022-11-27T03:25:07.328Z,0.00
2022-11-27T03:26:07.291Z,0.00
2022-11-27T03:27:07.270Z,0.00
2022-11-27T03:28:07.242Z,0.00
2022-11-27T03:29:07.217Z,0.00
2022-11-27T03:30:07.281Z,0.00
2022-11-27T03:31:07.222Z,0.00
2022-11-27T03:32:07.138Z,0.00
2022-11-27T03:33:07.165Z,0.00
2022-11-27T03:34:07.077Z,0.00
2022-11-27T03:35:07.068Z,0.00
2022-11-27T03:36:07.023Z,0.00
2022-11-27T03:37:07.003Z,0.00
2022-11-27T03:38:06.972Z,0.00
2022-11-27T03:39:06.949Z,0.00
2022-11-27T03:40:06.916Z,0.00
2022-11-27T03:41:06.910Z,0.00
2022-11-27T03:42:06.867Z,0.00
2022-11-27T03:43:06.859Z,0.00
2022-11-27T03:44:06.853Z,0.00
2022-11-27T03:45:06.786Z,0.00
2022-11-27T03:46:06.895Z,0.00
2022-11-27T03:47:06.763Z,0.00
2022-11-27T03:48:06.699Z,0.00
2022-11-27T03:49:06.682Z,0.00
2022-11-27T03:50:06.664Z,0.00
2022-11-27T03:51:06.624Z,0.00
2022-11-27T03:52:06.590Z,0.00
2022-11-27T03:53:06.589Z,0.00
2022-11-27T03:54:06.549Z,0.00
2022-11-27T03:55:06.521Z,0.00
2022-11-27T03:56:10.018Z,0.00
2022-11-27T03:57:06.469Z,0.00
2022-11-27T03:58:06.435Z,0.00
2022-11-27T03:59:06.412Z,0.00
2022-11-27T04:00:06.410Z,0.00
2022-11-27T04:01:06.382Z,0.00
2022-11-27T04:02:06.541Z,0.00
2022-11-27T04:03:06.306Z,0.00
2022-11-27T04:04:06.310Z,0.00
2022-11-27T04:05:06.254Z,0.00
2022-11-27T04:06:06.224Z,0.00
2022-11-27T04:07:06.193Z,0.00
2022-11-27T04:08:06.171Z,0.00
2022-11-27T04:09:06.141Z,0.00
2022-11-27T04:10:06.152Z,0.00
2022-11-27T04:11:06.085Z,0.00
2022-11-27T04:12:06.058Z,0.00
2022-11-27T04:13:06.029Z,0.00
2022-11-27T04:14:06.004Z,0.00
2022-11-27T04:15:05.982Z,0.00
2022-11-27T04:16:05.979Z,0.00
2022-11-27T04:17:05.930Z,0.00
2022-11-27T04:18:05.997Z,0.00
2022-11-27T04:19:05.872Z,0.00
2022-11-27T04:20:05.855Z,0.00
2022-11-27T04:21:05.819Z,0.00
2022-11-27T04:22:05.787Z,0.00
2022-11-27T04:23:05.762Z,0.00
2022-11-27T04:24:05.733Z,0.00
2022-11-27T04:25:05.714Z,0.00
2022-11-27T04:26:05.679Z,0.00
2022-11-27T04:27:05.654Z,0.00
2022-11-27T04:28:05.632Z,0.00
2022-11-27T04:29:05.605Z,0.00
2022-11-27T04:30:05.569Z,0.00
2022-11-27T04:31:05.587Z,0.00
2022-11-27T04:32:05.518Z,0.00
2022-11-27T04:33:05.492Z,0.00
2022-11-27T04:34:05.560Z,0.00
2022-11-27T04:35:05.437Z,0.00
2022-11-27T04:36:05.404Z,0.00
2022-11-27T04:37:05.404Z,0.00
2022-11-27T04:38:05.381Z,0.00
2022-11-27T04:39:05.340Z,0.00
2022-11-27T04:40:05.303Z,0.00
2022-11-27T04:41:05.277Z,0.00
2022-11-27T04:42:05.248Z,0.00
2022-11-27T04:43:05.222Z,0.00
2022-11-27T04:44:05.192Z,0.00
2022-11-27T04:45:05.167Z,0.00
2022-11-27T04:46:05.137Z,0.00
2022-11-27T04:47:05.166Z,0.00
2022-11-27T04:48:05.122Z,0.00
2022-11-27T04:49:05.059Z,0.00
2022-11-27T04:50:05.123Z,0.00
2022-11-27T04:51:05.009Z,0.00
2022-11-27T04:52:04.973Z,0.00
2022-11-27T04:53:04.953Z,0.00
2022-11-27T04:54:04.922Z,0.00
2022-11-27T04:55:04.899Z,0.00
2022-11-27T04:56:04.868Z,0.00
2022-11-27T04:57:04.848Z,0.00
2022-11-27T04:58:04.851Z,0.00
2022-11-27T04:59:04.791Z,0.00
2022-11-27T05:00:04.765Z,0.00
2022-11-27T05:01:04.804Z,0.00
2022-11-27T05:02:04.706Z,0.00
2022-11-27T05:03:04.729Z,0.00
2022-11-27T05:04:04.657Z,0.00
2022-11-27T05:05:04.630Z,0.00
2022-11-27T05:06:04.696Z,0.00
2022-11-27T05:07:04.588Z,0.00
2022-11-27T05:08:04.543Z,0.00
2022-11-27T05:09:04.524Z,0.00
2022-11-27T05:10:04.501Z,0.00
2022-11-27T05:11:04.487Z,0.00
2022-11-27T05:12:04.443Z,0.00
2022-11-27T05:13:04.417Z,0.00
2022-11-27T05:14:04.401Z,0.00
2022-11-27T05:15:04.853Z,0.00
2022-11-27T05:16:04.425Z,0.00
2022-11-27T05:17:04.315Z,0.00
2022-11-27T05:18:04.286Z,0.00
2022-11-27T05:19:04.256Z,0.00
2022-11-27T05:20:04.233Z,0.00
2022-11-27T05:21:04.198Z,0.00
2022-11-27T05:22:04.277Z,0.00
2022-11-27T05:23:04.150Z,0.00
2022-11-27T05:24:04.123Z,0.00
2022-11-27T05:25:04.091Z,0.00
2022-11-27T05:26:04.066Z,0.00
2022-11-27T05:27:04.036Z,0.00
2022-11-27T05:28:04.050Z,0.00
2022-11-27T05:29:03.985Z,0.00
2022-11-27T05:30:03.970Z,0.00
2022-11-27T05:31:03.973Z,0.00
2022-11-27T05:32:03.921Z,0.00
2022-11-27T05:33:03.885Z,0.00
2022-11-27T05:34:03.873Z,0.00
2022-11-27T05:35:03.826Z,0.00
2022-11-27T05:36:03.825Z,0.00
2022-11-27T05:37:03.784Z,0.00
2022-11-27T05:38:03.847Z,0.00
2022-11-27T05:39:03.717Z,0.00
2022-11-27T05:40:03.692Z,0.00
2022-11-27T05:41:03.660Z,0.00
2022-11-27T05:42:03.641Z,0.00
2022-11-27T05:43:03.616Z,0.00
2022-11-27T05:44:03.591Z,0.00
2022-11-27T05:45:03.556Z,0.00
2022-11-27T05:46:03.535Z,0.00
2022-11-27T05:47:03.580Z,0.00
2022-11-27T05:48:03.499Z,0.00
2022-11-27T05:49:03.450Z,0.00
2022-11-27T05:50:03.431Z,0.00
2022-11-27T05:51:03.404Z,0.00
2022-11-27T05:52:03.373Z,0.00
2022-11-27T05:53:03.360Z,0.00
2022-11-27T05:54:03.411Z,0.00
2022-11-27T05:55:03.307Z,0.00
2022-11-27T05:56:03.264Z,0.00
2022-11-27T05:57:03.237Z,0.00
2022-11-27T05:58:03.216Z,0.00
2022-11-27T05:59:03.201Z,0.00
2022-11-27T06:00:03.164Z,0.00
2022-11-27T06:01:03.130Z,0.00
2022-11-27T06:02:03.189Z,0.00
2022-11-27T06:03:03.239Z,0.00
2022-11-27T06:04:03.051Z,0.00
2022-11-27T06:05:03.017Z,0.00
2022-11-27T06:06:02.996Z,0.00
2022-11-27T06:07:02.991Z,0.00
2022-11-27T06:08:02.940Z,0.00
2022-11-27T06:09:04.833Z,0.00
2022-11-27T06:10:02.991Z,0.00
2022-11-27T06:11:02.856Z,0.00
2022-11-27T06:12:02.836Z,0.00
2022-11-27T06:13:02.810Z,0.00
2022-11-27T06:14:02.782Z,0.00
2022-11-27T06:15:02.769Z,0.00
2022-11-27T06:16:02.761Z,0.00
2022-11-27T06:17:02.693Z,0.00
2022-11-27T06:18:02.684Z,0.00
2022-11-27T06:19:02.640Z,0.00
2022-11-27T06:20:02.646Z,0.00
2022-11-27T06:21:02.603Z,0.00
2022-11-27T06:22:02.569Z,0.00
2022-11-27T06:23:02.546Z,0.00
2022-11-27T06:24:02.526Z,0.00
2022-11-27T06:25:02.484Z,0.00
2022-11-27T06:26:02.617Z,0.00
2022-11-27T06:27:02.427Z,0.00
2022-11-27T06:28:02.415Z,0.00
2022-11-27T06:29:02.374Z,0.00
2022-11-27T06:30:02.352Z,0.00
2022-11-27T06:31:02.326Z,0.00
2022-11-27T06:32:02.441Z,0.00
2022-11-27T06:33:02.276Z,0.00
2022-11-27T06:34:02.247Z,0.00
2022-11-27T06:35:02.213Z,0.00
2022-11-27T06:36:02.190Z,0.00
2022-11-27T06:37:02.159Z,0.00
2022-11-27T06:38:02.138Z,0.00
2022-11-27T06:39:02.108Z,0.00
2022-11-27T06:40:02.085Z,0.00
2022-11-27T06:41:02.050Z,0.00
2022-11-27T06:42:02.122Z,0.00
2022-11-27T06:43:02.001Z,0.00
2022-11-27T06:44:01.999Z,0.00
2022-11-27T06:45:01.968Z,0.00
2022-11-27T06:46:01.963Z,0.00
2022-11-27T06:47:01.903Z,0.00
2022-11-27T06:48:01.870Z,5.63
2022-11-27T06:49:01.866Z,5.63
2022-11-27T06:50:01.818Z,5.63
2022-11-27T06:51:01.793Z,5.63
2022-11-27T06:52:01.764Z,5.63
2022-11-27T06:53:01.755Z,5.63
2022-11-27T06:54:01.715Z,5.63
2022-11-27T06:55:01.679Z,5.63
2022-11-27T06:56:01.661Z,11.25
2022-11-27T06:57:01.629Z,11.25
2022-11-27T06:58:01.701Z,11.25
2022-11-27T06:59:01.570Z,11.25
2022-11-27T07:00:01.557Z,11.25
2022-11-27T07:01:01.627Z,11.25
2022-11-27T07:02:01.540Z,11.25
2022-11-27T07:03:01.469Z,16.88
2022-11-27T07:04:01.462Z,16.88
2022-11-27T07:05:01.428Z,16.88
2022-11-27T07:06:01.395Z,16.88
2022-11-27T07:07:01.399Z,16.88
2022-11-27T07:08:01.421Z,22.50
2022-11-27T07:09:01.312Z,22.50
2022-11-27T07:10:01.288Z,22.50
2022-11-27T07:11:01.253Z,22.50
2022-11-27T07:12:01.234Z,28.13
2022-11-27T07:13:01.203Z,28.13
2022-11-27T07:14:01.279Z,28.13
2022-11-27T07:15:04.185Z,28.13
2022-11-27T07:16:01.173Z,28.13
2022-11-27T07:17:01.096Z,33.75
2022-11-27T07:18:01.079Z,33.75
2022-11-27T07:19:01.046Z,33.75
2022-11-27T07:20:01.025Z,33.75
2022-11-27T07:21:00.995Z,39.38
2022-11-27T07:22:00.965Z,39.38
2022-11-27T07:23:00.940Z,39.38
2022-11-27T07:24:00.917Z,39.38
2022-11-27T07:25:00.886Z,39.38
2022-11-27T07:26:00.864Z,45.00
2022-11-27T07:27:00.841Z,45.00
2022-11-27T07:28:00.811Z,45.00
2022-11-27T07:29:00.781Z,45.00
2022-11-27T07:30:00.865Z,50.63
2022-11-27T07:31:00.729Z,50.63
2022-11-27T07:32:00.752Z,50.63
2022-11-27T07:33:00.682Z,56.25
2022-11-27T07:34:00.650Z,56.25
2022-11-27T07:35:00.639Z,56.25
2022-11-27T07:36:00.605Z,61.88
2022-11-27T07:37:00.569Z,61.88
2022-11-27T07:38:00.549Z,61.88
2022-11-27T07:39:00.515Z,61.88
2022-11-27T07:40:03.230Z,67.50
2022-11-27T07:41:00.462Z,67.50
2022-11-27T07:42:23.176Z,67.50
2022-11-27T07:43:00.411Z,73.13
2022-11-27T07:44:00.407Z,73.13
2022-11-27T07:45:00.356Z,73.13
2022-11-27T07:46:00.585Z,73.13
2022-11-27T07:47:00.306Z,73.13
2022-11-27T07:48:00.293Z,73.13
2022-11-27T07:49:00.251Z,73.13
2022-11-27T07:50:00.235Z,73.13
2022-11-27T07:51:00.200Z,73.13
2022-11-27T07:52:00.176Z,78.75
2022-11-27T07:53:00.143Z,78.75
2022-11-27T07:54:00.126Z,78.75
2022-11-27T07:55:00.095Z,78.75
2022-11-27T07:56:00.076Z,84.38
2022-11-27T07:57:00.040Z,90.00
2022-11-27T07:58:00.043Z,95.63
2022-11-27T07:58:59.999Z,101.25
2022-11-27T07:59:59.965Z,106.88
2022-11-27T08:00:59.959Z,106.88
2022-11-27T08:02:00.012Z,106.88
2022-11-27T08:02:59.881Z,112.50
2022-11-27T08:03:59.862Z,118.13
2022-11-27T08:04:59.910Z,123.75
2022-11-27T08:05:59.806Z,135.00
2022-11-27T08:06:59.778Z,140.63
2022-11-27T08:07:59.822Z,146.25
2022-11-27T08:08:59.723Z,146.25
2022-11-27T08:09:59.705Z,151.88
2022-11-27T08:10:59.667Z,151.88
2022-11-27T08:11:59.651Z,151.88
2022-11-27T08:12:59.621Z,151.88
2022-11-27T08:13:59.599Z,151.88
2022-11-27T08:14:59.570Z,151.88
2022-11-27T08:15:59.564Z,146.25
2022-11-27T08:16:59.516Z,146.25
2022-11-27T08:17:59.585Z,146.25
2022-11-27T08:18:59.461Z,151.88
2022-11-27T08:19:59.468Z,151.88
2022-11-27T08:20:59.416Z,151.88
2022-11-27T08:21:59.388Z,151.88
2022-11-27T08:23:02.811Z,151.88
2022-11-27T08:23:59.342Z,151.88
2022-11-27T08:24:59.305Z,157.50
2022-11-27T08:25:59.284Z,157.50
2022-11-27T08:26:59.264Z,163.13
2022-11-27T08:27:59.238Z,163.13
2022-11-27T08:28:59.205Z,168.75
2022-11-27T08:29:59.186Z,174.38
2022-11-27T08:30:59.158Z,180.00
2022-11-27T08:31:59.185Z,185.63
2022-11-27T08:32:59.105Z,191.25
2022-11-27T08:33:59.176Z,191.25
2022-11-27T08:34:59.052Z,191.25
2022-11-27T08:35:59.033Z,185.63
2022-11-27T08:36:59.022Z,191.25
2022-11-27T08:37:58.984Z,191.25
2022-11-27T08:38:58.949Z,185.63
2022-11-27T08:39:58.933Z,185.63
2022-11-27T08:40:58.900Z,191.25
2022-11-27T08:41:58.882Z,180.00
2022-11-27T08:42:58.850Z,163.13
2022-11-27T08:43:58.832Z,180.00
2022-11-27T08:44:58.800Z,174.38
2022-11-27T08:45:58.838Z,174.38
2022-11-27T08:46:58.753Z,185.63
2022-11-27T08:47:58.731Z,191.25
2022-11-27T08:48:58.716Z,196.88
2022-11-27T08:49:58.779Z,202.50
2022-11-27T08:50:58.648Z,202.50
2022-11-27T08:51:58.633Z,213.75
2022-11-27T08:52:58.613Z,219.38
2022-11-27T08:53:58.582Z,225.00
2022-11-27T08:54:58.551Z,219.38
2022-11-27T08:55:58.533Z,219.38
2022-11-27T08:56:58.505Z,213.75
2022-11-27T08:57:58.483Z,208.13
2022-11-27T08:58:58.449Z,202.50
2022-11-27T08:59:58.434Z,191.25
2022-11-27T09:00:58.440Z,180.00
2022-11-27T09:01:58.384Z,174.38
2022-11-27T09:02:58.355Z,168.75
2022-11-27T09:03:58.457Z,168.75
2022-11-27T09:04:58.303Z,174.38
2022-11-27T09:05:58.383Z,163.13
2022-11-27T09:06:58.921Z,163.13
2022-11-27T09:07:58.292Z,157.50
2022-11-27T09:08:58.207Z,157.50
2022-11-27T09:09:58.185Z,157.50
2022-11-27T09:10:58.168Z,157.50
2022-11-27T09:11:58.133Z,151.88
2022-11-27T09:12:58.104Z,157.50
2022-11-27T09:13:58.081Z,157.50
2022-11-27T09:14:58.056Z,163.13
2022-11-27T09:15:58.035Z,185.63
2022-11-27T09:16:58.045Z,191.25
2022-11-27T09:17:57.984Z,196.88
2022-11-27T09:18:57.960Z,196.88
2022-11-27T09:19:57.939Z,202.50
2022-11-27T09:20:57.909Z,208.13
2022-11-27T09:21:57.978Z,202.50
2022-11-27T09:22:57.855Z,196.88
2022-11-27T09:23:57.833Z,196.88
2022-11-27T09:24:57.804Z,202.50
2022-11-27T09:25:57.784Z,196.88
2022-11-27T09:26:57.767Z,208.13
2022-11-27T09:27:57.733Z,202.50
2022-11-27T09:28:57.702Z,213.75
2022-11-27T09:29:57.688Z,191.25
2022-11-27T09:30:57.663Z,208.13
2022-11-27T09:31:57.748Z,219.38
2022-11-27T09:32:57.611Z,230.63
2022-11-27T09:33:57.589Z,225.00
2022-11-27T09:34:57.581Z,219.38
2022-11-27T09:35:57.535Z,225.00
2022-11-27T09:36:57.541Z,236.25
2022-11-27T09:37:57.575Z,236.25
2022-11-27T09:38:57.464Z,241.88
2022-11-27T09:39:57.447Z,247.50
2022-11-27T09:41:02.849Z,253.13
2022-11-27T09:41:57.390Z,264.38
2022-11-27T09:42:57.361Z,236.25
2022-11-27T09:43:57.339Z,241.88
2022-11-27T09:44:57.320Z,236.25
2022-11-27T09:45:57.330Z,225.00
2022-11-27T09:46:57.263Z,225.00
2022-11-27T09:47:57.240Z,225.00
2022-11-27T09:48:57.217Z,230.63
2022-11-27T09:49:57.197Z,236.25
2022-11-27T09:50:57.168Z,270.00
2022-11-27T09:51:57.202Z,315.00
2022-11-27T09:52:57.120Z,326.25
2022-11-27T09:53:57.204Z,337.50
2022-11-27T09:54:57.072Z,348.75
2022-11-27T09:55:57.051Z,365.63
2022-11-27T09:56:57.031Z,326.25
2022-11-27T09:57:57.014Z,348.75
2022-11-27T09:58:57.004Z,343.13
2022-11-27T09:59:56.967Z,382.50
2022-11-27T10:00:56.930Z,433.13
2022-11-27T10:01:57.018Z,438.75
2022-11-27T10:02:57.161Z,455.63
2022-11-27T10:03:56.858Z,450.00
2022-11-27T10:05:19.634Z,410.63
2022-11-27T10:05:56.807Z,455.63
2022-11-27T10:06:56.791Z,421.88
2022-11-27T10:07:58.783Z,427.50
2022-11-27T10:08:56.744Z,348.75
2022-11-27T10:09:56.808Z,393.75
2022-11-27T10:10:56.696Z,388.13
2022-11-27T10:11:56.667Z,388.13
2022-11-27T10:12:56.651Z,343.13
2022-11-27T10:13:56.621Z,393.75
2022-11-27T10:14:56.609Z,410.63
2022-11-27T10:15:56.584Z,466.88
2022-11-27T10:16:56.653Z,416.25
2022-11-27T10:17:56.531Z,416.25
2022-11-27T10:18:56.526Z,421.88
2022-11-27T10:19:56.486Z,405.00
2022-11-27T10:20:56.473Z,405.00
2022-11-27T10:21:56.454Z,421.88
2022-11-27T10:22:56.424Z,455.63
2022-11-27T10:23:56.404Z,427.50
2022-11-27T10:24:56.384Z,444.38
2022-11-27T10:25:56.450Z,450.00
2022-11-27T10:26:56.338Z,405.00
2022-11-27T10:27:56.315Z,376.88
2022-11-27T10:28:56.325Z,371.25
2022-11-27T10:29:56.271Z,360.00
2022-11-27T10:30:56.274Z,354.38
2022-11-27T10:31:56.281Z,354.38
2022-11-27T10:32:56.785Z,343.13
2022-11-27T10:33:56.187Z,331.88
2022-11-27T10:34:56.166Z,320.63
2022-11-27T10:35:56.137Z,315.00
2022-11-27T10:36:56.196Z,309.38
2022-11-27T10:37:56.098Z,303.75
2022-11-27T10:38:56.091Z,309.38
2022-11-27T10:39:56.055Z,309.38
2022-11-27T10:40:56.044Z,343.13
2022-11-27T10:41:56.113Z,354.38
2022-11-27T10:42:56.046Z,410.63
2022-11-27T10:43:55.974Z,410.63
2022-11-27T10:44:55.950Z,393.75
2022-11-27T10:45:55.979Z,388.13
2022-11-27T10:46:55.907Z,421.88
2022-11-27T10:47:55.880Z,450.00
2022-11-27T10:48:55.867Z,483.75
2022-11-27T10:49:55.841Z,500.63
2022-11-27T10:50:55.821Z,472.50
2022-11-27T10:51:55.795Z,438.75
2022-11-27T10:52:55.786Z,438.75
2022-11-27T10:53:55.756Z,433.13
2022-11-27T10:54:55.742Z,427.50
2022-11-27T10:55:55.720Z,416.25
2022-11-27T10:56:55.714Z,416.25
2022-11-27T10:57:55.769Z,416.25
2022-11-27T10:58:55.651Z,433.13
2022-11-27T10:59:55.631Z,410.63
2022-11-27T11:00:55.633Z,444.38
2022-11-27T11:01:55.625Z,444.38
2022-11-27T11:02:55.573Z,489.38
2022-11-27T11:03:55.546Z,455.63
2022-11-27T11:05:24.005Z,444.38
2022-11-27T11:06:19.359Z,466.88
2022-11-27T11:06:55.494Z,444.38
2022-11-27T11:07:55.510Z,495.00
2022-11-27T11:09:00.101Z,596.25
2022-11-27T11:09:55.424Z,596.25
2022-11-27T11:10:55.402Z,618.75
2022-11-27T11:11:55.377Z,618.75
2022-11-27T11:12:55.365Z,635.63
2022-11-27T11:13:55.445Z,652.50
2022-11-27T11:14:55.326Z,568.13
2022-11-27T11:15:55.296Z,590.63
2022-11-27T11:16:55.323Z,562.50
2022-11-27T11:17:55.256Z,556.88
2022-11-27T11:18:55.238Z,568.13
2022-11-27T11:19:55.226Z,551.25
2022-11-27T11:20:55.202Z,534.38
2022-11-27T11:21:55.179Z,528.75
2022-11-27T11:22:55.163Z,562.50
2022-11-27T11:23:55.163Z,517.50
2022-11-27T11:24:55.129Z,590.63
2022-11-27T11:25:55.105Z,528.75
2022-11-27T11:26:55.088Z,478.13
2022-11-27T11:27:55.072Z,585.00
2022-11-27T11:28:55.059Z,601.88
2022-11-27T11:29:55.144Z,579.38
2022-11-27T11:30:55.015Z,585.00
2022-11-27T11:31:55.181Z,573.75
2022-11-27T11:32:54.979Z,483.75
2022-11-27T11:33:54.984Z,511.88
2022-11-27T11:35:00.374Z,461.25
2022-11-27T11:35:54.922Z,444.38
2022-11-27T11:36:54.930Z,444.38
2022-11-27T11:37:54.907Z,433.13
2022-11-27T11:38:54.890Z,433.13
2022-11-27T11:39:54.874Z,416.25
2022-11-27T11:40:54.841Z,399.38
2022-11-27T11:41:54.816Z,388.13
2022-11-27T11:42:54.871Z,382.50
2022-11-27T11:43:54.781Z,388.13
2022-11-27T11:44:54.763Z,399.38
2022-11-27T11:45:54.858Z,427.50
2022-11-27T11:46:54.734Z,433.13
2022-11-27T11:47:54.699Z,466.88
2022-11-27T11:48:54.688Z,511.88
2022-11-27T11:49:54.663Z,511.88
2022-11-27T11:50:54.649Z,596.25
2022-11-27T11:51:54.627Z,613.13
2022-11-27T11:52:54.615Z,635.63
2022-11-27T11:53:54.590Z,646.88
2022-11-27T11:54:54.574Z,703.13
2022-11-27T11:55:54.552Z,748.13
2022-11-27T11:56:54.537Z,753.75
2022-11-27T11:57:54.518Z,725.63
2022-11-27T11:58:54.500Z,725.63
2022-11-27T11:59:54.477Z,731.25
2022-11-27T12:01:25.789Z,663.75
2022-11-27T12:01:54.744Z,585.00
2022-11-27T12:02:54.429Z,568.13
2022-11-27T12:03:54.410Z,573.75
2022-11-27T12:04:54.421Z,528.75
2022-11-27T12:05:54.375Z,540.00
2022-11-27T12:06:54.363Z,517.50
2022-11-27T12:07:54.398Z,534.38
2022-11-27T12:08:54.331Z,562.50
2022-11-27T12:09:54.304Z,495.00
2022-11-27T12:10:54.288Z,466.88
2022-11-27T12:11:54.268Z,472.50
2022-11-27T12:12:54.258Z,478.13
2022-11-27T12:13:54.236Z,506.25
2022-11-27T12:14:54.222Z,562.50
2022-11-27T12:15:54.197Z,630.00
2022-11-27T12:16:54.235Z,545.63
2022-11-27T12:17:54.258Z,500.63
2022-11-27T12:18:54.148Z,517.50
2022-11-27T12:19:54.132Z,568.13
2022-11-27T12:20:54.114Z,489.38
2022-11-27T12:21:54.093Z,461.25
2022-11-27T12:22:54.082Z,455.63
2022-11-27T12:23:54.061Z,450.00
2022-11-27T12:24:54.052Z,444.38
2022-11-27T12:25:54.021Z,444.38
2022-11-27T12:26:54.010Z,438.75
2022-11-27T12:27:53.985Z,433.13
2022-11-27T12:28:59.000Z,427.50
2022-11-27T12:29:53.948Z,421.88
2022-11-27T12:30:53.930Z,421.88
2022-11-27T12:31:53.973Z,421.88
2022-11-27T12:32:53.892Z,410.63
2022-11-27T12:33:53.964Z,405.00
2022-11-27T12:34:53.855Z,405.00
2022-11-27T12:35:53.830Z,399.38
2022-11-27T12:36:53.822Z,388.13
2022-11-27T12:37:53.794Z,382.50
2022-11-27T12:38:53.776Z,371.25
2022-11-27T12:39:53.756Z,360.00
2022-11-27T12:40:53.741Z,360.00
2022-11-27T12:41:53.723Z,360.00
2022-11-27T12:42:53.707Z,371.25
2022-11-27T12:43:53.683Z,399.38
2022-11-27T12:44:53.663Z,416.25
2022-11-27T12:45:53.685Z,416.25
2022-11-27T12:46:53.633Z,405.00
2022-11-27T12:47:53.598Z,388.13
2022-11-27T12:48:53.582Z,382.50
2022-11-27T12:49:53.750Z,382.50
2022-11-27T12:50:53.561Z,388.13
2022-11-27T12:51:53.548Z,382.50
2022-11-27T12:52:53.576Z,371.25
2022-11-27T12:53:53.565Z,354.38
2022-11-27T12:54:53.547Z,320.63
2022-11-27T12:55:53.497Z,292.50